createdAt,value
2023-03-30T00:00:22.225Z,57.99
2023-03-30T00:05:26.621Z,58.32
2023-03-30T00:10:30.824Z,58.48
2023-03-30T00:15:34.981Z,57.93
2023-03-30T00:20:43.889Z,58.55
2023-03-30T00:25:48.223Z,58.33
2023-03-30T00:30:54.243Z,58.38
2023-03-30T00:35:59.690Z,58.75
2023-03-30T00:41:03.858Z,58.30
2023-03-30T00:46:08.162Z,58.38
2023-03-30T00:51:12.869Z,58.56
2023-03-30T00:56:21.372Z,58.01
2023-03-30T01:01:29.794Z,57.35
2023-03-30T01:06:36.729Z,56.72
2023-03-30T01:11:41.288Z,57.01
2023-03-30T01:16:53.839Z,56.88
2023-03-30T01:22:28.197Z,56.59
2023-03-30T01:27:40.293Z,55.44
2023-03-30T01:32:59.372Z,55.41
2023-03-30T01:38:18.289Z,55.72
2023-03-30T01:43:39.243Z,55.36
2023-03-30T01:49:12.072Z,55.43
2023-03-30T01:54:25.321Z,55.49
2023-03-30T01:59:47.605Z,55.90
2023-03-30T02:04:54.673Z,56.22
2023-03-30T02:10:03.810Z,55.27
2023-03-30T02:15:12.931Z,55.29
2023-03-30T02:20:18.635Z,55.35
2023-03-30T02:25:23.904Z,55.43
2023-03-30T02:30:34.798Z,54.60
2023-03-30T02:35:50.503Z,54.35
2023-03-30T02:41:08.985Z,53.71
2023-03-30T02:46:38.575Z,53.28
2023-03-30T02:52:09.568Z,53.45
2023-03-30T02:57:38.414Z,52.44
2023-03-30T03:03:29.994Z,53.00
2023-03-30T03:08:37.747Z,52.52
2023-03-30T03:13:46.051Z,52.33
2023-03-30T03:18:50.403Z,52.50
2023-03-30T03:23:54.630Z,51.43
2023-03-30T03:28:59.729Z,51.01
2023-03-30T03:34:03.741Z,50.84
2023-03-30T03:39:40.649Z,51.42
2023-03-30T03:44:47.643Z,50.16
2023-03-30T03:49:52.349Z,51.07
2023-03-30T03:54:56.188Z,50.45
2023-03-30T04:00:01.669Z,51.11
2023-03-30T04:05:16.245Z,50.11
2023-03-30T04:10:22.129Z,50.70
2023-03-30T04:16:02.506Z,50.85
2023-03-30T04:21:19.086Z,51.49
2023-03-30T04:26:42.562Z,51.60
2023-03-30T04:32:04.665Z,50.66
2023-03-30T04:37:31.218Z,50.43
2023-03-30T04:42:41.116Z,49.66
2023-03-30T04:47:54.228Z,46.52
2023-03-30T04:53:01.207Z,46.54
2023-03-30T04:58:05.010Z,46.42
2023-03-30T05:03:37.853Z,46.31
2023-03-30T05:08:53.717Z,44.83
2023-03-30T05:14:16.331Z,45.13
2023-03-30T05:19:30.263Z,43.77
2023-03-30T05:25:00.149Z,43.46
2023-03-30T05:30:24.874Z,43.29
2023-03-30T05:35:57.839Z,44.04
2023-03-30T05:41:23.213Z,42.76
2023-03-30T05:46:51.388Z,42.03
2023-03-30T05:52:23.265Z,42.59
2023-03-30T05:57:53.596Z,40.81
2023-03-30T06:03:06.728Z,41.04
2023-03-30T06:08:12.839Z,41.63
2023-03-30T06:13:17.810Z,42.10
2023-03-30T06:18:28.119Z,41.69
2023-03-30T06:23:38.626Z,40.77
2023-03-30T06:28:48.610Z,39.90
2023-03-30T06:33:52.626Z,40.66
2023-03-30T06:38:57.174Z,40.84
2023-03-30T06:44:01.770Z,40.99
2023-03-30T06:49:12.920Z,40.96
2023-03-30T06:54:21.096Z,39.00
2023-03-30T06:59:34.580Z,38.79
2023-03-30T07:04:57.770Z,39.79
2023-03-30T07:10:12.969Z,39.06
2023-03-30T07:15:17.350Z,39.12
2023-03-30T07:20:22.940Z,39.45
2023-03-30T07:25:47.384Z,39.09
2023-03-30T07:31:11.197Z,38.20
2023-03-30T07:36:17.917Z,39.08
2023-03-30T07:41:22.041Z,37.98
2023-03-30T07:46:30.220Z,36.35
2023-03-30T07:51:35.242Z,36.87
2023-03-30T07:56:46.087Z,34.60
2023-03-30T08:01:52.710Z,35.56
2023-03-30T08:07:15.174Z,36.12
2023-03-30T08:12:23.153Z,36.22
2023-03-30T08:17:27.259Z,35.54
2023-03-30T08:22:31.208Z,36.23
2023-03-30T08:27:35.458Z,34.84
2023-03-30T08:32:39.889Z,36.87
2023-03-30T08:37:44.006Z,36.01
2023-03-30T08:43:12.882Z,36.45
2023-03-30T08:48:26.016Z,36.43
2023-03-30T08:53:33.906Z,38.14
2023-03-30T08:58:40.858Z,39.94
2023-03-30T09:04:05.889Z,40.60
2023-03-30T09:09:17.757Z,41.37
2023-03-30T09:14:36.450Z,41.79
2023-03-30T09:19:58.074Z,42.62
2023-03-30T09:25:02.358Z,42.52
2023-03-30T09:30:28.030Z,42.86
2023-03-30T09:35:45.807Z,43.26
2023-03-30T09:41:18.777Z,42.64
2023-03-30T09:46:22.887Z,42.54
2023-03-30T09:51:31.396Z,42.58
2023-03-30T09:56:35.250Z,42.69
2023-03-30T10:01:39.451Z,42.57
2023-03-30T10:06:51.463Z,43.54
2023-03-30T10:11:56.570Z,44.22
2023-03-30T10:17:01.979Z,43.88
2023-03-30T10:22:19.574Z,44.83
2023-03-30T10:27:34.808Z,44.81
2023-03-30T10:32:39.103Z,45.17
2023-03-30T10:37:47.688Z,45.57
2023-03-30T10:42:59.742Z,44.97
2023-03-30T10:48:31.857Z,45.73
2023-03-30T10:54:03.590Z,46.33
2023-03-30T10:59:36.883Z,46.37
2023-03-30T11:04:46.343Z,46.84
2023-03-30T11:09:56.585Z,47.07
2023-03-30T11:15:39.451Z,47.01
2023-03-30T11:21:00.373Z,46.90
2023-03-30T11:26:13.135Z,46.87
2023-03-30T11:31:32.108Z,47.31
2023-03-30T11:36:41.020Z,46.93
2023-03-30T11:42:17.412Z,47.33
2023-03-30T11:47:36.983Z,47.25
2023-03-30T11:53:09.402Z,47.09
2023-03-30T11:58:35.261Z,47.61
2023-03-30T12:04:10.789Z,48.03
2023-03-30T12:09:27.804Z,47.49
2023-03-30T12:14:55.228Z,47.88
2023-03-30T12:20:33.923Z,48.15
2023-03-30T12:26:10.892Z,48.08
2023-03-30T12:31:16.181Z,47.90
2023-03-30T12:36:36.340Z,48.37
2023-03-30T12:41:43.810Z,47.97
2023-03-30T12:47:07.472Z,48.96
2023-03-30T12:52:36.755Z,48.47
2023-03-30T12:57:46.878Z,48.73
2023-03-30T13:03:03.447Z,48.68
2023-03-30T13:08:19.801Z,48.47
2023-03-30T13:13:45.409Z,48.98
2023-03-30T13:18:49.174Z,49.09
2023-03-30T13:24:03.481Z,49.43
2023-03-30T13:29:12.396Z,49.33
2023-03-30T13:34:34.184Z,49.47
2023-03-30T13:39:49.174Z,49.31
2023-03-30T13:45:23.920Z,49.47
2023-03-30T13:50:32.126Z,49.90
2023-03-30T13:55:58.718Z,49.47
2023-03-30T14:01:08.457Z,49.52
2023-03-30T14:06:15.731Z,49.90
2023-03-30T14:11:41.756Z,49.78
2023-03-30T14:16:45.658Z,50.20
2023-03-30T14:21:53.919Z,50.12
2023-03-30T14:27:14.206Z,50.41
2023-03-30T14:32:26.813Z,50.81
2023-03-30T14:37:32.974Z,51.07
2023-03-30T14:42:36.914Z,50.93
2023-03-30T14:47:41.889Z,51.01
2023-03-30T14:52:47.765Z,51.27
2023-03-30T14:57:52.933Z,51.28
2023-03-30T15:03:02.375Z,51.42
2023-03-30T15:08:07.439Z,51.13
2023-03-30T15:13:21.814Z,51.74
2023-03-30T15:18:29.140Z,51.50
2023-03-30T15:23:39.506Z,51.28
2023-03-30T15:28:50.133Z,52.28
2023-03-30T15:34:02.827Z,51.76
2023-03-30T15:39:34.441Z,52.12
2023-03-30T15:44:42.005Z,52.39
2023-03-30T15:49:50.984Z,52.81
2023-03-30T15:54:56.500Z,52.41
2023-03-30T16:00:10.201Z,52.71
2023-03-30T16:05:20.664Z,52.90
2023-03-30T16:10:29.892Z,53.16
2023-03-30T16:15:35.105Z,53.65
2023-03-30T16:20:39.219Z,53.36
2023-03-30T16:25:45.293Z,53.51
2023-03-30T16:30:53.299Z,53.48
2023-03-30T16:35:57.315Z,54.19
2023-03-30T16:41:03.161Z,54.22
2023-03-30T16:46:07.943Z,54.05
2023-03-30T16:51:13.998Z,54.34
2023-03-30T16:56:19.865Z,54.61
2023-03-30T17:01:25.342Z,54.73
2023-03-30T17:06:29.301Z,55.23
2023-03-30T17:11:33.323Z,55.07
2023-03-30T17:16:41.029Z,54.73
2023-03-30T17:21:46.413Z,55.23
2023-03-30T17:26:52.971Z,54.95
2023-03-30T17:32:20.455Z,55.98
2023-03-30T17:37:24.433Z,56.31
2023-03-30T17:42:29.724Z,56.12
2023-03-30T17:47:36.626Z,56.59
2023-03-30T17:52:42.122Z,56.82
2023-03-30T17:57:47.494Z,57.13
2023-03-30T18:02:53.135Z,57.55
2023-03-30T18:07:57.216Z,57.10
2023-03-30T18:13:01.482Z,57.77
2023-03-30T18:18:05.847Z,57.61
2023-03-30T18:23:10.723Z,58.03
2023-03-30T18:28:26.056Z,58.25
2023-03-30T18:33:29.870Z,58.82
2023-03-30T18:38:34.450Z,58.59
2023-03-30T18:43:39.380Z,58.60
2023-03-30T18:48:43.494Z,58.83
2023-03-30T18:53:47.221Z,58.83
2023-03-30T18:58:51.148Z,58.99
2023-03-30T19:03:54.876Z,59.50
2023-03-30T19:08:58.835Z,59.28
2023-03-30T19:14:04.164Z,59.42
2023-03-30T19:19:11.489Z,59.75
2023-03-30T19:24:16.567Z,59.81
2023-03-30T19:29:20.616Z,59.67
2023-03-30T19:34:24.276Z,60.06
2023-03-30T19:39:28.218Z,60.53
2023-03-30T19:44:32.245Z,60.58
2023-03-30T19:49:36.812Z,60.83
2023-03-30T19:54:40.630Z,60.61
2023-03-30T19:59:44.337Z,60.91
2023-03-30T20:04:48.343Z,60.92
2023-03-30T20:09:52.263Z,60.92
2023-03-30T20:14:56.850Z,61.40
2023-03-30T20:20:07.419Z,61.33
2023-03-30T20:25:14.362Z,61.81
2023-03-30T20:30:19.290Z,61.73
2023-03-30T20:35:25.294Z,61.98
2023-03-30T20:40:29.180Z,62.02
2023-03-30T20:45:33.365Z,62.20
2023-03-30T20:50:37.905Z,62.35
2023-03-30T20:55:43.328Z,62.82
2023-03-30T21:00:47.933Z,62.96
2023-03-30T21:06:01.087Z,62.71
2023-03-30T21:11:05.254Z,62.62
2023-03-30T21:16:09.759Z,61.83
2023-03-30T21:21:13.989Z,61.54
2023-03-30T21:26:19.123Z,61.31
2023-03-30T21:31:23.525Z,60.84
2023-03-30T21:36:27.427Z,60.60
2023-03-30T21:41:31.480Z,60.53
2023-03-30T21:46:35.330Z,60.12
2023-03-30T21:51:39.384Z,59.82
2023-03-30T21:56:43.336Z,60.40
2023-03-30T22:01:47.105Z,60.12
2023-03-30T22:06:51.123Z,60.60
2023-03-30T22:11:56.022Z,60.81
2023-03-30T22:17:00.037Z,60.89
2023-03-30T22:22:06.284Z,61.10
2023-03-30T22:27:10.218Z,61.29
2023-03-30T22:32:14.725Z,61.22
2023-03-30T22:37:18.471Z,60.87
2023-03-30T22:42:23.289Z,60.87
2023-03-30T22:47:27.941Z,61.06
2023-03-30T22:52:32.682Z,59.74
2023-03-30T22:57:36.780Z,58.67
2023-03-30T23:02:41.253Z,58.13
2023-03-30T23:07:46.801Z,57.47
2023-03-30T23:12:50.729Z,57.54
2023-03-30T23:17:54.534Z,57.17
2023-03-30T23:22:58.545Z,57.25
2023-03-30T23:28:04.246Z,57.64
2023-03-30T23:33:28.327Z,57.11
2023-03-30T23:38:32.746Z,57.46
2023-03-30T23:43:36.799Z,57.52
2023-03-30T23:48:41.183Z,57.34
2023-03-30T23:53:44.950Z,57.35
2023-03-30T23:58:48.884Z,57.07
